sensor_id;sensor_type;location;lat;lon;timestamp;pressure;altitude;pressure_sealevel;temperature;humidity
60479;BME280;46321;48.398;11.754;2024-01-16T00:01:43;95854.31;;;-2.19;nan
60479;BME280;46321;48.398;11.754;2024-01-16T00:04:09;95855.03;;;-2.17;nan
60479;BME280;46321;48.398;11.754;2024-01-16T00:06:41;95852.44;;;-2.17;nan
60479;BME280;46321;48.398;11.754;2024-01-16T00:09:07;95870.38;;;-2.14;nan
60479;BME280;46321;48.398;11.754;2024-01-16T00:11:33;95868.63;;;-2.13;nan
60479;BME280;46321;48.398;11.754;2024-01-16T00:13:58;95878.59;;;-2.20;nan
60479;BME280;46321;48.398;11.754;2024-01-16T00:16:24;95876.84;;;-2.20;nan
60479;BME280;46321;48.398;11.754;2024-01-16T00:18:49;95881.03;;;-2.30;nan
60479;BME280;46321;48.398;11.754;2024-01-16T00:21:14;95883.06;;;-2.22;nan
60479;BME280;46321;48.398;11.754;2024-01-16T00:23:40;95882.38;;;-2.24;nan
60479;BME280;46321;48.398;11.754;2024-01-16T00:26:05;95890.53;;;-2.17;nan
60479;BME280;46321;48.398;11.754;2024-01-16T00:28:31;95894.88;;;-2.18;nan
60479;BME280;46321;48.398;11.754;2024-01-16T00:30:57;95898.19;;;-2.16;nan
60479;BME280;46321;48.398;11.754;2024-01-16T00:33:22;95884.19;;;-2.13;nan
60479;BME280;46321;48.398;11.754;2024-01-16T00:35:47;95893.00;;;-2.16;nan
60479;BME280;46321;48.398;11.754;2024-01-16T00:38:13;95898.13;;;-2.27;nan
60479;BME280;46321;48.398;11.754;2024-01-16T00:40:38;95897.47;;;-2.18;nan
60479;BME280;46321;48.398;11.754;2024-01-16T00:43:03;95906.19;;;-2.19;nan
60479;BME280;46321;48.398;11.754;2024-01-16T00:45:29;95901.50;;;-2.14;nan
60479;BME280;46321;48.398;11.754;2024-01-16T00:47:54;95912.72;;;-2.13;nan
60479;BME280;46321;48.398;11.754;2024-01-16T00:50:19;95915.13;;;-2.23;nan
60479;BME280;46321;48.398;11.754;2024-01-16T00:52:45;95913.16;;;-2.20;nan
60479;BME280;46321;48.398;11.754;2024-01-16T00:55:10;95914.84;;;-2.32;nan
60479;BME280;46321;48.398;11.754;2024-01-16T00:57:35;95914.19;;;-2.22;nan
60479;BME280;46321;48.398;11.754;2024-01-16T01:00:01;95912.19;;;-2.19;nan
60479;BME280;46321;48.398;11.754;2024-01-16T01:02:26;95908.44;;;-2.14;nan
60479;BME280;46321;48.398;11.754;2024-01-16T01:04:51;95924.84;;;-2.14;nan
60479;BME280;46321;48.398;11.754;2024-01-16T01:07:16;95918.69;;;-2.13;nan
60479;BME280;46321;48.398;11.754;2024-01-16T01:09:42;95927.31;;;-2.12;nan
60479;BME280;46321;48.398;11.754;2024-01-16T01:12:07;95935.22;;;-2.14;nan
60479;BME280;46321;48.398;11.754;2024-01-16T01:14:32;95936.84;;;-2.13;nan
60479;BME280;46321;48.398;11.754;2024-01-16T01:16:59;95932.16;;;-2.32;nan
60479;BME280;46321;48.398;11.754;2024-01-16T01:19:24;95944.47;;;-2.23;nan
60479;BME280;46321;48.398;11.754;2024-01-16T01:21:49;95941.78;;;-2.21;nan
60479;BME280;46321;48.398;11.754;2024-01-16T01:24:15;95943.13;;;-2.28;nan
60479;BME280;46321;48.398;11.754;2024-01-16T01:26:43;95943.66;;;-2.23;nan
60479;BME280;46321;48.398;11.754;2024-01-16T01:29:08;95952.47;;;-2.26;nan
60479;BME280;46321;48.398;11.754;2024-01-16T01:31:33;95952.38;;;-2.24;nan
60479;BME280;46321;48.398;11.754;2024-01-16T01:33:58;95960.16;;;-2.24;nan
60479;BME280;46321;48.398;11.754;2024-01-16T01:36:24;95965.34;;;-2.24;nan
60479;BME280;46321;48.398;11.754;2024-01-16T01:38:49;95959.53;;;-2.28;nan
60479;BME280;46321;48.398;11.754;2024-01-16T01:41:14;95962.75;;;-2.37;nan
60479;BME280;46321;48.398;11.754;2024-01-16T01:43:40;95970.34;;;-2.34;nan
60479;BME280;46321;48.398;11.754;2024-01-16T01:48:30;95964.44;;;-2.36;nan
60479;BME280;46321;48.398;11.754;2024-01-16T01:50:57;95971.38;;;-2.37;nan
60479;BME280;46321;48.398;11.754;2024-01-16T01:53:23;95975.25;;;-2.56;nan
60479;BME280;46321;48.398;11.754;2024-01-16T01:55:49;95973.88;;;-2.48;nan
60479;BME280;46321;48.398;11.754;2024-01-16T01:58:14;95982.38;;;-2.46;nan
60479;BME280;46321;48.398;11.754;2024-01-16T02:00:39;95986.97;;;-2.50;nan
60479;BME280;46321;48.398;11.754;2024-01-16T02:03:05;95988.41;;;-2.46;nan
60479;BME280;46321;48.398;11.754;2024-01-16T02:05:31;95989.75;;;-2.53;nan
60479;BME280;46321;48.398;11.754;2024-01-16T02:07:57;95999.00;;;-2.49;nan
60479;BME280;46321;48.398;11.754;2024-01-16T02:10:23;95988.84;;;-2.52;nan
60479;BME280;46321;48.398;11.754;2024-01-16T02:12:49;96000.66;;;-2.61;nan
60479;BME280;46321;48.398;11.754;2024-01-16T02:15:15;96000.88;;;-2.77;nan
60479;BME280;46321;48.398;11.754;2024-01-16T02:17:40;96001.16;;;-2.69;nan
60479;BME280;46321;48.398;11.754;2024-01-16T02:20:06;96006.16;;;-2.66;nan
60479;BME280;46321;48.398;11.754;2024-01-16T02:22:33;96012.38;;;-2.68;nan
60479;BME280;46321;48.398;11.754;2024-01-16T02:25:00;96019.00;;;-2.64;nan
60479;BME280;46321;48.398;11.754;2024-01-16T02:27:26;96010.09;;;-2.73;nan
60479;BME280;46321;48.398;11.754;2024-01-16T02:29:51;96010.19;;;-2.74;nan
60479;BME280;46321;48.398;11.754;2024-01-16T02:32:16;96013.22;;;-2.81;nan
60479;BME280;46321;48.398;11.754;2024-01-16T02:34:42;96015.50;;;-2.89;nan
60479;BME280;46321;48.398;11.754;2024-01-16T02:37:08;96019.63;;;-2.87;nan
60479;BME280;46321;48.398;11.754;2024-01-16T02:39:33;96015.50;;;-2.89;nan
60479;BME280;46321;48.398;11.754;2024-01-16T02:41:59;96020.69;;;-2.89;nan
60479;BME280;46321;48.398;11.754;2024-01-16T02:44:24;96023.03;;;-2.86;nan
60479;BME280;46321;48.398;11.754;2024-01-16T02:46:49;96017.66;;;-2.83;nan
60479;BME280;46321;48.398;11.754;2024-01-16T02:49:15;96016.94;;;-2.85;nan
60479;BME280;46321;48.398;11.754;2024-01-16T02:51:40;96018.28;;;-2.92;nan
60479;BME280;46321;48.398;11.754;2024-01-16T02:54:07;96012.91;;;-2.89;nan
60479;BME280;46321;48.398;11.754;2024-01-16T02:56:33;96012.38;;;-2.94;nan
60479;BME280;46321;48.398;11.754;2024-01-16T02:58:58;96025.63;;;-2.99;nan
60479;BME280;46321;48.398;11.754;2024-01-16T03:01:23;96022.94;;;-2.97;nan
60479;BME280;46321;48.398;11.754;2024-01-16T03:03:49;96026.53;;;-3.13;nan
60479;BME280;46321;48.398;11.754;2024-01-16T03:06:24;96024.47;;;-3.08;nan
60479;BME280;46321;48.398;11.754;2024-01-16T03:08:50;96024.78;;;-3.13;nan
60479;BME280;46321;48.398;11.754;2024-01-16T03:11:15;96025.72;;;-3.14;nan
60479;BME280;46321;48.398;11.754;2024-01-16T03:13:40;96019.78;;;-3.16;nan
60479;BME280;46321;48.398;11.754;2024-01-16T03:16:12;96023.94;;;-3.13;nan
60479;BME280;46321;48.398;11.754;2024-01-16T03:18:38;96016.59;;;-3.19;nan
60479;BME280;46321;48.398;11.754;2024-01-16T03:21:05;96023.31;;;-3.17;nan
60479;BME280;46321;48.398;11.754;2024-01-16T03:23:30;96034.59;;;-3.18;nan
60479;BME280;46321;48.398;11.754;2024-01-16T03:25:56;96038.25;;;-3.20;nan
60479;BME280;46321;48.398;11.754;2024-01-16T03:28:22;96034.06;;;-3.36;nan
60479;BME280;46321;48.398;11.754;2024-01-16T03:30:47;96039.44;;;-3.39;nan
60479;BME280;46321;48.398;11.754;2024-01-16T03:33:12;96036.50;;;-3.48;nan
60479;BME280;46321;48.398;11.754;2024-01-16T03:35:38;96049.75;;;-3.52;nan
60479;BME280;46321;48.398;11.754;2024-01-16T03:38:03;96046.63;;;-3.58;nan
60479;BME280;46321;48.398;11.754;2024-01-16T03:40:29;96045.41;;;-3.52;nan
60479;BME280;46321;48.398;11.754;2024-01-16T03:42:59;96047.00;;;-3.64;nan
60479;BME280;46321;48.398;11.754;2024-01-16T03:45:24;96046.00;;;-3.61;nan
60479;BME280;46321;48.398;11.754;2024-01-16T03:47:49;96051.34;;;-3.64;nan
60479;BME280;46321;48.398;11.754;2024-01-16T03:50:15;96053.41;;;-3.70;nan
60479;BME280;46321;48.398;11.754;2024-01-16T03:52:40;96050.91;;;-3.71;nan
60479;BME280;46321;48.398;11.754;2024-01-16T03:55:06;96038.91;;;-3.72;nan
60479;BME280;46321;48.398;11.754;2024-01-16T03:57:31;96042.94;;;-3.96;nan
60479;BME280;46321;48.398;11.754;2024-01-16T03:59:56;96035.84;;;-3.92;nan
60479;BME280;46321;48.398;11.754;2024-01-16T04:02:21;96039.22;;;-3.92;nan
60479;BME280;46321;48.398;11.754;2024-01-16T04:04:47;96029.81;;;-3.93;nan
60479;BME280;46321;48.398;11.754;2024-01-16T04:07:12;96039.16;;;-4.05;nan
60479;BME280;46321;48.398;11.754;2024-01-16T04:09:37;96045.47;;;-4.09;nan
60479;BME280;46321;48.398;11.754;2024-01-16T04:12:02;96047.31;;;-4.26;nan
60479;BME280;46321;48.398;11.754;2024-01-16T04:14:28;96056.06;;;-4.14;nan
60479;BME280;46321;48.398;11.754;2024-01-16T04:16:53;96047.03;;;-4.21;nan
60479;BME280;46321;48.398;11.754;2024-01-16T04:19:18;96048.81;;;-4.21;nan
60479;BME280;46321;48.398;11.754;2024-01-16T04:21:44;96047.75;;;-4.19;nan
60479;BME280;46321;48.398;11.754;2024-01-16T04:24:09;96052.13;;;-4.19;nan
60479;BME280;46321;48.398;11.754;2024-01-16T04:26:36;96057.84;;;-4.29;nan
60479;BME280;46321;48.398;11.754;2024-01-16T04:29:02;96051.66;;;-4.26;nan
60479;BME280;46321;48.398;11.754;2024-01-16T04:31:29;96057.19;;;-4.18;nan
60479;BME280;46321;48.398;11.754;2024-01-16T04:33:54;96048.59;;;-4.18;nan
60479;BME280;46321;48.398;11.754;2024-01-16T04:36:19;96057.38;;;-4.21;nan
60479;BME280;46321;48.398;11.754;2024-01-16T04:38:44;96050.84;;;-4.27;nan
60479;BME280;46321;48.398;11.754;2024-01-16T04:41:10;96048.69;;;-4.34;nan
60479;BME280;46321;48.398;11.754;2024-01-16T04:43:35;96049.81;;;-4.24;nan
60479;BME280;46321;48.398;11.754;2024-01-16T04:46:00;96046.56;;;-4.28;nan
60479;BME280;46321;48.398;11.754;2024-01-16T04:48:26;96039.19;;;-4.19;nan
60479;BME280;46321;48.398;11.754;2024-01-16T04:50:51;96045.94;;;-4.31;nan
60479;BME280;46321;48.398;11.754;2024-01-16T04:53:17;96044.19;;;-4.31;nan
60479;BME280;46321;48.398;11.754;2024-01-16T04:55:42;96046.94;;;-4.34;nan
60479;BME280;46321;48.398;11.754;2024-01-16T04:58:08;96042.72;;;-4.35;nan
60479;BME280;46321;48.398;11.754;2024-01-16T05:00:33;96036.88;;;-4.39;nan
60479;BME280;46321;48.398;11.754;2024-01-16T05:02:58;96043.91;;;-4.41;nan
60479;BME280;46321;48.398;11.754;2024-01-16T05:05:23;96039.13;;;-4.47;nan
60479;BME280;46321;48.398;11.754;2024-01-16T05:07:49;96032.47;;;-4.51;nan
60479;BME280;46321;48.398;11.754;2024-01-16T05:10:14;96031.91;;;-4.56;nan
60479;BME280;46321;48.398;11.754;2024-01-16T05:12:40;96033.28;;;-4.65;nan
60479;BME280;46321;48.398;11.754;2024-01-16T05:15:06;96040.03;;;-4.63;nan
60479;BME280;46321;48.398;11.754;2024-01-16T05:17:32;96039.56;;;-4.69;nan
60479;BME280;46321;48.398;11.754;2024-01-16T05:19:57;96043.91;;;-4.70;nan
60479;BME280;46321;48.398;11.754;2024-01-16T05:22:23;96043.56;;;-4.64;nan
60479;BME280;46321;48.398;11.754;2024-01-16T05:24:48;96045.38;;;-4.66;nan
60479;BME280;46321;48.398;11.754;2024-01-16T05:27:13;96043.91;;;-4.70;nan
60479;BME280;46321;48.398;11.754;2024-01-16T05:29:40;96049.53;;;-4.63;nan
60479;BME280;46321;48.398;11.754;2024-01-16T05:32:06;96049.81;;;-4.68;nan
60479;BME280;46321;48.398;11.754;2024-01-16T05:34:31;96052.31;;;-4.66;nan
60479;BME280;46321;48.398;11.754;2024-01-16T05:36:56;96047.16;;;-4.66;nan
60479;BME280;46321;48.398;11.754;2024-01-16T05:39:22;96036.63;;;-4.78;nan
60479;BME280;46321;48.398;11.754;2024-01-16T05:41:47;96037.81;;;-4.69;nan
60479;BME280;46321;48.398;11.754;2024-01-16T05:44:12;96032.66;;;-4.69;nan
60479;BME280;46321;48.398;11.754;2024-01-16T05:46:37;96033.03;;;-4.75;nan
60479;BME280;46321;48.398;11.754;2024-01-16T05:49:03;96044.47;;;-4.79;nan
60479;BME280;46321;48.398;11.754;2024-01-16T05:51:28;96054.31;;;-4.86;nan
60479;BME280;46321;48.398;11.754;2024-01-16T05:53:57;96044.91;;;-4.87;nan
60479;BME280;46321;48.398;11.754;2024-01-16T05:56:22;96052.47;;;-4.84;nan
60479;BME280;46321;48.398;11.754;2024-01-16T05:58:47;96056.97;;;-4.88;nan
60479;BME280;46321;48.398;11.754;2024-01-16T06:01:13;96054.59;;;-4.91;nan
60479;BME280;46321;48.398;11.754;2024-01-16T06:03:41;96062.59;;;-4.96;nan
60479;BME280;46321;48.398;11.754;2024-01-16T06:06:07;96054.28;;;-5.01;nan
60479;BME280;46321;48.398;11.754;2024-01-16T06:08:32;96051.81;;;-5.02;nan
60479;BME280;46321;48.398;11.754;2024-01-16T06:10:58;96051.06;;;-5.04;nan
60479;BME280;46321;48.398;11.754;2024-01-16T06:13:23;96051.22;;;-5.08;nan
60479;BME280;46321;48.398;11.754;2024-01-16T06:15:48;96056.50;;;-5.09;nan
60479;BME280;46321;48.398;11.754;2024-01-16T06:18:14;96061.06;;;-5.14;nan
60479;BME280;46321;48.398;11.754;2024-01-16T06:20:39;96057.50;;;-5.12;nan
60479;BME280;46321;48.398;11.754;2024-01-16T06:23:04;96062.75;;;-5.13;nan
60479;BME280;46321;48.398;11.754;2024-01-16T06:25:29;96066.44;;;-5.18;nan
60479;BME280;46321;48.398;11.754;2024-01-16T06:27:55;96062.78;;;-5.30;nan
60479;BME280;46321;48.398;11.754;2024-01-16T06:30:21;96059.81;;;-5.38;nan
60479;BME280;46321;48.398;11.754;2024-01-16T06:32:46;96052.38;;;-5.28;nan
60479;BME280;46321;48.398;11.754;2024-01-16T06:35:13;96056.28;;;-5.21;nan
60479;BME280;46321;48.398;11.754;2024-01-16T06:37:39;96049.38;;;-5.20;nan
60479;BME280;46321;48.398;11.754;2024-01-16T06:40:04;96044.28;;;-5.22;nan
60479;BME280;46321;48.398;11.754;2024-01-16T06:42:30;96050.47;;;-5.24;nan
60479;BME280;46321;48.398;11.754;2024-01-16T06:44:56;96051.38;;;-5.25;nan
60479;BME280;46321;48.398;11.754;2024-01-16T06:47:21;96048.63;;;-5.22;nan
60479;BME280;46321;48.398;11.754;2024-01-16T06:49:48;96047.94;;;-5.26;nan
60479;BME280;46321;48.398;11.754;2024-01-16T06:52:14;96054.31;;;-5.32;nan
60479;BME280;46321;48.398;11.754;2024-01-16T06:54:39;96054.94;;;-5.28;nan
60479;BME280;46321;48.398;11.754;2024-01-16T06:57:04;96052.47;;;-5.30;nan
60479;BME280;46321;48.398;11.754;2024-01-16T06:59:30;96051.63;;;-5.30;nan
60479;BME280;46321;48.398;11.754;2024-01-16T07:01:55;96057.47;;;-5.26;nan
60479;BME280;46321;48.398;11.754;2024-01-16T07:04:20;96059.00;;;-5.24;nan
60479;BME280;46321;48.398;11.754;2024-01-16T07:06:45;96058.09;;;-5.23;nan
60479;BME280;46321;48.398;11.754;2024-01-16T07:09:11;96053.78;;;-5.22;nan
60479;BME280;46321;48.398;11.754;2024-01-16T07:11:37;96060.56;;;-5.05;nan
60479;BME280;46321;48.398;11.754;2024-01-16T07:14:03;96055.28;;;-5.03;nan
60479;BME280;46321;48.398;11.754;2024-01-16T07:16:28;96057.91;;;-4.89;nan
60479;BME280;46321;48.398;11.754;2024-01-16T07:18:54;96060.88;;;-4.80;nan
60479;BME280;46321;48.398;11.754;2024-01-16T07:21:20;96056.91;;;-4.72;nan
60479;BME280;46321;48.398;11.754;2024-01-16T07:23:46;96053.31;;;-4.54;nan
60479;BME280;46321;48.398;11.754;2024-01-16T07:26:11;96051.50;;;-4.38;nan
60479;BME280;46321;48.398;11.754;2024-01-16T07:28:37;96047.22;;;-4.24;nan
60479;BME280;46321;48.398;11.754;2024-01-16T07:31:02;96048.41;;;-4.15;nan
60479;BME280;46321;48.398;11.754;2024-01-16T07:33:28;96054.28;;;-3.98;nan
60479;BME280;46321;48.398;11.754;2024-01-16T07:35:54;96057.78;;;-3.85;nan
60479;BME280;46321;48.398;11.754;2024-01-16T07:38:20;96047.53;;;-3.86;nan
60479;BME280;46321;48.398;11.754;2024-01-16T07:40:45;96050.91;;;-3.71;nan
60479;BME280;46321;48.398;11.754;2024-01-16T07:43:10;96057.34;;;-3.64;nan
60479;BME280;46321;48.398;11.754;2024-01-16T07:45:35;96054.59;;;-3.61;nan
60479;BME280;46321;48.398;11.754;2024-01-16T07:48:01;96059.44;;;-3.56;nan
60479;BME280;46321;48.398;11.754;2024-01-16T07:50:26;96063.31;;;-3.49;nan
60479;BME280;46321;48.398;11.754;2024-01-16T07:52:51;96064.44;;;-3.53;nan
60479;BME280;46321;48.398;11.754;2024-01-16T07:55:16;96068.19;;;-3.72;nan
60479;BME280;46321;48.398;11.754;2024-01-16T07:57:43;96073.00;;;-3.65;nan
60479;BME280;46321;48.398;11.754;2024-01-16T08:00:09;96073.91;;;-3.66;nan
60479;BME280;46321;48.398;11.754;2024-01-16T08:02:37;96072.38;;;-3.56;nan
60479;BME280;46321;48.398;11.754;2024-01-16T08:05:02;96076.16;;;-3.47;nan
60479;BME280;46321;48.398;11.754;2024-01-16T08:07:28;96067.63;;;-3.35;nan
60479;BME280;46321;48.398;11.754;2024-01-16T08:09:53;96065.59;;;-3.16;nan
60479;BME280;46321;48.398;11.754;2024-01-16T08:12:18;96055.03;;;-3.00;nan
60479;BME280;46321;48.398;11.754;2024-01-16T08:14:43;96054.78;;;-2.82;nan
60479;BME280;46321;48.398;11.754;2024-01-16T08:17:09;96045.34;;;-2.70;nan
60479;BME280;46321;48.398;11.754;2024-01-16T08:19:34;96054.88;;;-2.58;nan
60479;BME280;46321;48.398;11.754;2024-01-16T08:22:01;96060.88;;;-2.44;nan
60479;BME280;46321;48.398;11.754;2024-01-16T08:24:27;96061.69;;;-2.31;nan
60479;BME280;46321;48.398;11.754;2024-01-16T08:26:53;96044.97;;;-2.00;nan
60479;BME280;46321;48.398;11.754;2024-01-16T08:29:18;96050.91;;;-1.49;nan
60479;BME280;46321;48.398;11.754;2024-01-16T08:31:43;96050.91;;;-1.24;nan
60479;BME280;46321;48.398;11.754;2024-01-16T08:34:08;96057.81;;;-1.00;nan
60479;BME280;46321;48.398;11.754;2024-01-16T08:36:34;96058.84;;;-0.78;nan
60479;BME280;46321;48.398;11.754;2024-01-16T08:38:59;96056.34;;;-0.80;nan
60479;BME280;46321;48.398;11.754;2024-01-16T08:41:24;96057.75;;;-0.76;nan
60479;BME280;46321;48.398;11.754;2024-01-16T08:43:49;96052.63;;;-0.41;nan
60479;BME280;46321;48.398;11.754;2024-01-16T08:46:16;96053.69;;;-0.21;nan
60479;BME280;46321;48.398;11.754;2024-01-16T08:48:41;96055.09;;;-0.40;nan
60479;BME280;46321;48.398;11.754;2024-01-16T08:51:08;96049.44;;;-0.22;nan
60479;BME280;46321;48.398;11.754;2024-01-16T08:53:37;96054.03;;;-0.49;nan
60479;BME280;46321;48.398;11.754;2024-01-16T08:56:02;96046.13;;;-0.47;nan
60479;BME280;46321;48.398;11.754;2024-01-16T08:58:27;96038.91;;;-0.32;nan
60479;BME280;46321;48.398;11.754;2024-01-16T09:00:53;96038.91;;;-0.32;nan
60479;BME280;46321;48.398;11.754;2024-01-16T09:03:18;96031.47;;;-0.14;nan
60479;BME280;46321;48.398;11.754;2024-01-16T09:05:43;96023.88;;;0.06;nan
60479;BME280;46321;48.398;11.754;2024-01-16T09:08:08;96028.25;;;-0.06;nan
60479;BME280;46321;48.398;11.754;2024-01-16T09:10:34;96022.22;;;-0.06;nan
60479;BME280;46321;48.398;11.754;2024-01-16T09:12:59;96023.84;;;0.18;nan
60479;BME280;46321;48.398;11.754;2024-01-16T09:15:24;96027.50;;;0.27;nan
60479;BME280;46321;48.398;11.754;2024-01-16T09:17:50;96021.34;;;0.28;nan
60479;BME280;46321;48.398;11.754;2024-01-16T09:20:15;96026.75;;;0.36;nan
60479;BME280;46321;48.398;11.754;2024-01-16T09:22:40;96018.66;;;0.51;nan
60479;BME280;46321;48.398;11.754;2024-01-16T09:25:06;96019.16;;;0.44;nan
60479;BME280;46321;48.398;11.754;2024-01-16T09:27:32;96017.44;;;0.66;nan
60479;BME280;46321;48.398;11.754;2024-01-16T09:29:57;96022.53;;;0.56;nan
60479;BME280;46321;48.398;11.754;2024-01-16T09:32:22;96011.19;;;0.57;nan
60479;BME280;46321;48.398;11.754;2024-01-16T09:34:48;96017.56;;;0.65;nan
60479;BME280;46321;48.398;11.754;2024-01-16T09:37:13;96014.50;;;0.81;nan
60479;BME280;46321;48.398;11.754;2024-01-16T09:39:40;96018.84;;;0.71;nan
60479;BME280;46321;48.398;11.754;2024-01-16T09:42:06;96027.06;;;1.09;nan
60479;BME280;46321;48.398;11.754;2024-01-16T09:44:32;96022.78;;;1.08;nan
60479;BME280;46321;48.398;11.754;2024-01-16T09:46:57;96026.16;;;1.20;nan
60479;BME280;46321;48.398;11.754;2024-01-16T09:49:24;96025.16;;;1.64;nan
60479;BME280;46321;48.398;11.754;2024-01-16T09:51:50;96022.66;;;1.83;nan
60479;BME280;46321;48.398;11.754;2024-01-16T09:54:15;96022.91;;;2.32;nan
60479;BME280;46321;48.398;11.754;2024-01-16T09:56:42;96030.78;;;2.71;nan
60479;BME280;46321;48.398;11.754;2024-01-16T09:59:09;96023.34;;;3.06;nan
60479;BME280;46321;48.398;11.754;2024-01-16T10:01:36;96026.25;;;3.61;nan
60479;BME280;46321;48.398;11.754;2024-01-16T10:04:02;96019.06;;;4.01;nan
60479;BME280;46321;48.398;11.754;2024-01-16T10:06:27;96030.66;;;4.27;nan
60479;BME280;46321;48.398;11.754;2024-01-16T10:08:54;96018.31;;;5.11;nan
60479;BME280;46321;48.398;11.754;2024-01-16T10:11:20;96010.50;;;5.72;nan
60479;BME280;46321;48.398;11.754;2024-01-16T10:13:45;96007.50;;;6.46;nan
60479;BME280;46321;48.398;11.754;2024-01-16T10:16:11;96012.50;;;7.24;nan
60479;BME280;46321;48.398;11.754;2024-01-16T10:18:36;96005.22;;;6.59;nan
60479;BME280;46321;48.398;11.754;2024-01-16T10:21:03;96004.59;;;7.32;nan
60479;BME280;46321;48.398;11.754;2024-01-16T10:23:30;96001.25;;;7.64;nan
60479;BME280;46321;48.398;11.754;2024-01-16T10:26:11;96001.75;;;8.72;nan
60479;BME280;46321;48.398;11.754;2024-01-16T10:28:38;95995.97;;;9.38;nan
60479;BME280;46321;48.398;11.754;2024-01-16T10:31:05;95992.09;;;10.91;nan
60479;BME280;46321;48.398;11.754;2024-01-16T10:33:31;95980.94;;;13.08;nan
60479;BME280;46321;48.398;11.754;2024-01-16T10:36:15;95962.97;;;14.56;nan
60479;BME280;46321;48.398;11.754;2024-01-16T10:38:45;95978.19;;;14.81;nan
60479;BME280;46321;48.398;11.754;2024-01-16T10:41:15;95970.84;;;13.91;nan
60479;BME280;46321;48.398;11.754;2024-01-16T10:43:42;95971.91;;;12.61;nan
60479;BME280;46321;48.398;11.754;2024-01-16T10:46:17;95967.28;;;11.50;nan
60479;BME280;46321;48.398;11.754;2024-01-16T10:48:44;95974.06;;;11.24;nan
60479;BME280;46321;48.398;11.754;2024-01-16T10:51:11;95953.69;;;11.95;nan
60479;BME280;46321;48.398;11.754;2024-01-16T10:53:42;95962.34;;;13.01;nan
60479;BME280;46321;48.398;11.754;2024-01-16T10:56:10;95950.28;;;13.39;nan
60479;BME280;46321;48.398;11.754;2024-01-16T10:58:39;95949.84;;;13.56;nan
60479;BME280;46321;48.398;11.754;2024-01-16T11:01:05;95957.66;;;13.16;nan
60479;BME280;46321;48.398;11.754;2024-01-16T11:03:40;95961.88;;;12.50;nan
60479;BME280;46321;48.398;11.754;2024-01-16T11:06:07;95960.91;;;12.85;nan
60479;BME280;46321;48.398;11.754;2024-01-16T11:08:36;95964.34;;;12.71;nan
60479;BME280;46321;48.398;11.754;2024-01-16T11:11:02;95969.06;;;9.20;nan
60479;BME280;46321;48.398;11.754;2024-01-16T11:13:31;95967.13;;;7.79;nan
60479;BME280;46321;48.398;11.754;2024-01-16T11:15:57;95973.88;;;6.83;nan
60479;BME280;46321;48.398;11.754;2024-01-16T11:18:24;95971.34;;;6.31;nan
60479;BME280;46321;48.398;11.754;2024-01-16T11:20:50;95980.06;;;6.32;nan
60479;BME280;46321;48.398;11.754;2024-01-16T11:23:15;95971.16;;;6.33;nan
60479;BME280;46321;48.398;11.754;2024-01-16T11:25:41;95965.78;;;6.43;nan
60479;BME280;46321;48.398;11.754;2024-01-16T11:28:11;95955.28;;;7.01;nan
60479;BME280;46321;48.398;11.754;2024-01-16T11:30:37;95954.56;;;7.24;nan
60479;BME280;46321;48.398;11.754;2024-01-16T11:33:03;95946.69;;;7.32;nan
60479;BME280;46321;48.398;11.754;2024-01-16T11:38:04;95955.09;;;7.76;nan
60479;BME280;46321;48.398;11.754;2024-01-16T11:40:32;95942.53;;;11.07;nan
60479;BME280;46321;48.398;11.754;2024-01-16T11:42:58;95935.16;;;12.78;nan
60479;BME280;46321;48.398;11.754;2024-01-16T11:48:16;95922.56;;;10.38;nan
60479;BME280;46321;48.398;11.754;2024-01-16T11:50:42;95916.34;;;9.42;nan
60479;BME280;46321;48.398;11.754;2024-01-16T11:53:07;95909.13;;;8.66;nan
60479;BME280;46321;48.398;11.754;2024-01-16T11:55:34;95911.13;;;8.09;nan
60479;BME280;46321;48.398;11.754;2024-01-16T11:58:08;95909.13;;;7.39;nan
60479;BME280;46321;48.398;11.754;2024-01-16T12:00:36;95907.91;;;6.59;nan
60479;BME280;46321;48.398;11.754;2024-01-16T12:03:06;95904.16;;;5.77;nan
60479;BME280;46321;48.398;11.754;2024-01-16T12:05:31;95900.38;;;5.36;nan
60479;BME280;46321;48.398;11.754;2024-01-16T12:07:57;95896.59;;;5.03;nan
60479;BME280;46321;48.398;11.754;2024-01-16T12:10:24;95883.19;;;4.62;nan
60479;BME280;46321;48.398;11.754;2024-01-16T12:12:50;95877.22;;;4.69;nan
60479;BME280;46321;48.398;11.754;2024-01-16T12:15:20;95882.41;;;4.43;nan
60479;BME280;46321;48.398;11.754;2024-01-16T12:17:56;95887.44;;;4.54;nan
60479;BME280;46321;48.398;11.754;2024-01-16T12:20:22;95883.78;;;4.29;nan
60479;BME280;46321;48.398;11.754;2024-01-16T12:22:55;95882.03;;;4.19;nan
60479;BME280;46321;48.398;11.754;2024-01-16T12:25:20;95881.06;;;3.84;nan
60479;BME280;46321;48.398;11.754;2024-01-16T12:27:59;95868.97;;;3.54;nan
60479;BME280;46321;48.398;11.754;2024-01-16T12:30:33;95860.88;;;3.48;nan
60479;BME280;46321;48.398;11.754;2024-01-16T12:33:08;95858.75;;;3.33;nan
60479;BME280;46321;48.398;11.754;2024-01-16T12:35:37;95860.28;;;3.26;nan
60479;BME280;46321;48.398;11.754;2024-01-16T12:38:04;95847.94;;;3.18;nan
60479;BME280;46321;48.398;11.754;2024-01-16T12:40:36;95859.44;;;2.97;nan
60479;BME280;46321;48.398;11.754;2024-01-16T12:43:03;95855.69;;;2.61;nan
60479;BME280;46321;48.398;11.754;2024-01-16T12:45:28;95855.69;;;2.61;nan
60479;BME280;46321;48.398;11.754;2024-01-16T12:47:54;95855.69;;;2.51;nan
60479;BME280;46321;48.398;11.754;2024-01-16T12:50:25;95861.22;;;2.38;nan
60479;BME280;46321;48.398;11.754;2024-01-16T12:53:21;95855.72;;;2.42;nan
60479;BME280;46321;48.398;11.754;2024-01-16T12:55:57;95862.47;;;2.44;nan
60479;BME280;46321;48.398;11.754;2024-01-16T12:58:23;95865.75;;;2.26;nan
60479;BME280;46321;48.398;11.754;2024-01-16T13:00:51;95868.38;;;2.26;nan
60479;BME280;46321;48.398;11.754;2024-01-16T13:03:17;95859.47;;;2.19;nan
60479;BME280;46321;48.398;11.754;2024-01-16T13:05:44;95856.41;;;1.94;nan
60479;BME280;46321;48.398;11.754;2024-01-16T13:08:16;95849.00;;;1.89;nan
60479;BME280;46321;48.398;11.754;2024-01-16T13:10:41;95846.78;;;2.04;nan
60479;BME280;46321;48.398;11.754;2024-01-16T13:13:17;95844.06;;;1.96;nan
60479;BME280;46321;48.398;11.754;2024-01-16T13:15:44;95847.34;;;1.98;nan